YND weather

Ottawa / Gatineau Airport
Gatineau, Quebec, Canada

Public forecast

Using degrees Celsius for public forecast. Weather courtesy of forecast.io.

METAR (pilot weather report)

Retrieved 2019/05/24 01:00 UTC (1 hour ago):

CYND 240100Z 00000KT 12SM FEW010 SCT030 BKN050 13/13 A2964 RMK SF1SC3SC2 LAST STFD OBS/NEXT 241100 UTC SLP038 DENSITY ALT 400FT

TAF (pilot weather forecast)

Forecast is more than 6 hours old.

Retrieved 2019/05/23 18:00 UTC (8 hours ago):

TAF CYND 231738Z 2318/2401 12010KT P6SM SCT040 BKN140 OVC220 FM232000 12008KT P6SM -SHRA BKN025 OVC100 TEMPO 2320/2323 4SM SHRA BR OVC015 PROB40 2320/2323 VRB20G30KT 1SM +TSRA BR BKN008 OVC015CB FM232300 26012G22KT P6SM BKN025 TEMPO 2323/2401 P6SM -SHRA OVC020 RMK NXT FCST WILL BE ISSUED AT 241245Z